sensor_id;sensor_type;location;lat;lon;timestamp;P1;durP1;ratioP1;P2;durP2;ratioP2
78610;SDS011;67932;50.474;4.436;2023-02-19T00:01:21;8.63;;;4.15;;
78610;SDS011;67932;50.474;4.436;2023-02-19T00:03:48;7.32;;;4.25;;
78610;SDS011;67932;50.474;4.436;2023-02-19T00:06:16;10.07;;;4.45;;
78610;SDS011;67932;50.474;4.436;2023-02-19T00:08:42;11.38;;;4.43;;
78610;SDS011;67932;50.474;4.436;2023-02-19T00:11:10;7.65;;;4.35;;
78610;SDS011;67932;50.474;4.436;2023-02-19T00:13:37;9.52;;;4.40;;
78610;SDS011;67932;50.474;4.436;2023-02-19T00:16:04;8.82;;;4.47;;
78610;SDS011;67932;50.474;4.436;2023-02-19T00:18:30;8.77;;;4.47;;
78610;SDS011;67932;50.474;4.436;2023-02-19T00:20:56;9.73;;;4.00;;
78610;SDS011;67932;50.474;4.436;2023-02-19T00:23:22;9.30;;;4.28;;
78610;SDS011;67932;50.474;4.436;2023-02-19T00:25:48;10.10;;;4.40;;
78610;SDS011;67932;50.474;4.436;2023-02-19T00:28:14;11.65;;;4.70;;
78610;SDS011;67932;50.474;4.436;2023-02-19T00:30:40;9.70;;;4.15;;
78610;SDS011;67932;50.474;4.436;2023-02-19T00:33:06;6.72;;;3.45;;
78610;SDS011;67932;50.474;4.436;2023-02-19T00:35:33;9.63;;;4.30;;
78610;SDS011;67932;50.474;4.436;2023-02-19T00:37:59;8.32;;;4.03;;
78610;SDS011;67932;50.474;4.436;2023-02-19T00:40:25;8.50;;;3.67;;
78610;SDS011;67932;50.474;4.436;2023-02-19T00:42:52;7.18;;;3.75;;
78610;SDS011;67932;50.474;4.436;2023-02-19T00:45:18;8.05;;;4.05;;
78610;SDS011;67932;50.474;4.436;2023-02-19T00:47:44;10.75;;;4.22;;
78610;SDS011;67932;50.474;4.436;2023-02-19T00:50:10;8.40;;;3.65;;
78610;SDS011;67932;50.474;4.436;2023-02-19T00:52:36;8.48;;;3.58;;
78610;SDS011;67932;50.474;4.436;2023-02-19T00:55:02;8.63;;;3.67;;
78610;SDS011;67932;50.474;4.436;2023-02-19T00:57:28;10.20;;;3.75;;
78610;SDS011;67932;50.474;4.436;2023-02-19T00:59:54;7.90;;;4.28;;
78610;SDS011;67932;50.474;4.436;2023-02-19T01:02:20;11.00;;;3.30;;
78610;SDS011;67932;50.474;4.436;2023-02-19T01:04:46;9.07;;;3.30;;
78610;SDS011;67932;50.474;4.436;2023-02-19T01:07:12;8.13;;;3.90;;
78610;SDS011;67932;50.474;4.436;2023-02-19T01:09:38;11.90;;;4.00;;
78610;SDS011;67932;50.474;4.436;2023-02-19T01:12:04;8.05;;;3.80;;
78610;SDS011;67932;50.474;4.436;2023-02-19T01:14:30;9.88;;;4.15;;
78610;SDS011;67932;50.474;4.436;2023-02-19T01:16:56;11.70;;;3.70;;
78610;SDS011;67932;50.474;4.436;2023-02-19T01:19:22;9.25;;;3.95;;
78610;SDS011;67932;50.474;4.436;2023-02-19T01:21:48;6.82;;;3.38;;
78610;SDS011;67932;50.474;4.436;2023-02-19T01:24:14;10.52;;;4.38;;
78610;SDS011;67932;50.474;4.436;2023-02-19T01:26:40;10.38;;;4.15;;
78610;SDS011;67932;50.474;4.436;2023-02-19T01:29:07;9.02;;;4.15;;
78610;SDS011;67932;50.474;4.436;2023-02-19T01:31:33;10.05;;;3.72;;
78610;SDS011;67932;50.474;4.436;2023-02-19T01:33:59;11.50;;;4.65;;
78610;SDS011;67932;50.474;4.436;2023-02-19T01:36:26;10.70;;;4.30;;
78610;SDS011;67932;50.474;4.436;2023-02-19T01:38:52;9.77;;;4.47;;
78610;SDS011;67932;50.474;4.436;2023-02-19T01:41:19;13.27;;;4.30;;
78610;SDS011;67932;50.474;4.436;2023-02-19T01:43:55;10.25;;;4.22;;
78610;SDS011;67932;50.474;4.436;2023-02-19T01:46:23;12.52;;;4.13;;
78610;SDS011;67932;50.474;4.436;2023-02-19T01:48:50;10.77;;;4.60;;
78610;SDS011;67932;50.474;4.436;2023-02-19T01:51:16;11.50;;;4.22;;
78610;SDS011;67932;50.474;4.436;2023-02-19T01:53:44;12.90;;;4.47;;
78610;SDS011;67932;50.474;4.436;2023-02-19T01:56:12;8.95;;;4.50;;
78610;SDS011;67932;50.474;4.436;2023-02-19T01:58:40;10.05;;;4.47;;
78610;SDS011;67932;50.474;4.436;2023-02-19T02:01:06;10.13;;;4.38;;
78610;SDS011;67932;50.474;4.436;2023-02-19T02:03:33;11.57;;;4.45;;
78610;SDS011;67932;50.474;4.436;2023-02-19T02:06:08;12.85;;;5.40;;
78610;SDS011;67932;50.474;4.436;2023-02-19T02:08:36;16.83;;;4.70;;
78610;SDS011;67932;50.474;4.436;2023-02-19T02:11:21;14.13;;;4.93;;
78610;SDS011;67932;50.474;4.436;2023-02-19T02:13:47;14.43;;;4.53;;
78610;SDS011;67932;50.474;4.436;2023-02-19T02:16:20;16.13;;;4.63;;
78610;SDS011;67932;50.474;4.436;2023-02-19T02:24:16;8.82;;;4.97;;
78610;SDS011;67932;50.474;4.436;2023-02-19T02:27:10;13.68;;;5.07;;
78610;SDS011;67932;50.474;4.436;2023-02-19T02:29:54;10.98;;;4.70;;
78610;SDS011;67932;50.474;4.436;2023-02-19T02:32:26;15.23;;;4.88;;
78610;SDS011;67932;50.474;4.436;2023-02-19T02:35:03;12.43;;;5.03;;
78610;SDS011;67932;50.474;4.436;2023-02-19T02:37:31;12.63;;;4.03;;
78610;SDS011;67932;50.474;4.436;2023-02-19T02:39:59;13.88;;;4.85;;
78610;SDS011;67932;50.474;4.436;2023-02-19T02:42:26;9.90;;;3.47;;
78610;SDS011;67932;50.474;4.436;2023-02-19T02:44:53;13.38;;;4.00;;
78610;SDS011;67932;50.474;4.436;2023-02-19T02:47:41;15.07;;;4.47;;
78610;SDS011;67932;50.474;4.436;2023-02-19T02:50:11;18.33;;;4.57;;
78610;SDS011;67932;50.474;4.436;2023-02-19T02:52:39;9.27;;;3.40;;
78610;SDS011;67932;50.474;4.436;2023-02-19T02:55:24;9.80;;;3.40;;
78610;SDS011;67932;50.474;4.436;2023-02-19T02:57:51;8.85;;;3.83;;
78610;SDS011;67932;50.474;4.436;2023-02-19T03:00:17;13.50;;;3.63;;
78610;SDS011;67932;50.474;4.436;2023-02-19T03:02:43;14.02;;;4.20;;
78610;SDS011;67932;50.474;4.436;2023-02-19T03:05:12;10.95;;;3.20;;
78610;SDS011;67932;50.474;4.436;2023-02-19T03:07:59;9.30;;;3.58;;
78610;SDS011;67932;50.474;4.436;2023-02-19T03:10:36;11.25;;;3.13;;
78610;SDS011;67932;50.474;4.436;2023-02-19T03:13:05;9.90;;;3.50;;
78610;SDS011;67932;50.474;4.436;2023-02-19T03:15:52;13.63;;;3.90;;
78610;SDS011;67932;50.474;4.436;2023-02-19T03:18:38;13.00;;;3.80;;
78610;SDS011;67932;50.474;4.436;2023-02-19T03:21:24;10.93;;;3.40;;
78610;SDS011;67932;50.474;4.436;2023-02-19T03:23:51;14.48;;;3.80;;
78610;SDS011;67932;50.474;4.436;2023-02-19T03:26:37;13.43;;;3.65;;
78610;SDS011;67932;50.474;4.436;2023-02-19T03:29:03;20.83;;;4.35;;
78610;SDS011;67932;50.474;4.436;2023-02-19T03:31:51;14.23;;;3.80;;
78610;SDS011;67932;50.474;4.436;2023-02-19T03:34:23;12.88;;;3.35;;
78610;SDS011;67932;50.474;4.436;2023-02-19T03:37:01;10.55;;;2.85;;
78610;SDS011;67932;50.474;4.436;2023-02-19T03:39:29;12.73;;;2.92;;
78610;SDS011;67932;50.474;4.436;2023-02-19T03:42:00;11.25;;;3.00;;
78610;SDS011;67932;50.474;4.436;2023-02-19T03:46:59;11.48;;;3.13;;
78610;SDS011;67932;50.474;4.436;2023-02-19T03:51:56;15.23;;;3.83;;
78610;SDS011;67932;50.474;4.436;2023-02-19T03:54:30;13.13;;;2.67;;
78610;SDS011;67932;50.474;4.436;2023-02-19T03:56:59;13.55;;;2.92;;
78610;SDS011;67932;50.474;4.436;2023-02-19T04:01:59;11.18;;;2.53;;
78610;SDS011;67932;50.474;4.436;2023-02-19T04:04:27;11.07;;;2.50;;
78610;SDS011;67932;50.474;4.436;2023-02-19T04:06:56;12.50;;;3.00;;
78610;SDS011;67932;50.474;4.436;2023-02-19T04:09:24;7.00;;;2.40;;
78610;SDS011;67932;50.474;4.436;2023-02-19T04:11:51;8.95;;;2.50;;
78610;SDS011;67932;50.474;4.436;2023-02-19T04:14:22;11.05;;;2.83;;
78610;SDS011;67932;50.474;4.436;2023-02-19T04:16:50;9.27;;;2.38;;
78610;SDS011;67932;50.474;4.436;2023-02-19T04:19:20;10.27;;;2.72;;
78610;SDS011;67932;50.474;4.436;2023-02-19T04:21:46;9.73;;;2.70;;
78610;SDS011;67932;50.474;4.436;2023-02-19T04:24:28;10.68;;;3.03;;
78610;SDS011;67932;50.474;4.436;2023-02-19T04:26:55;12.77;;;2.28;;
78610;SDS011;67932;50.474;4.436;2023-02-19T04:29:21;8.88;;;2.85;;
78610;SDS011;67932;50.474;4.436;2023-02-19T04:31:47;13.90;;;2.65;;
78610;SDS011;67932;50.474;4.436;2023-02-19T04:34:13;9.80;;;2.70;;
78610;SDS011;67932;50.474;4.436;2023-02-19T04:36:39;14.82;;;3.17;;
78610;SDS011;67932;50.474;4.436;2023-02-19T04:39:05;19.85;;;3.65;;
78610;SDS011;67932;50.474;4.436;2023-02-19T04:41:32;12.15;;;3.03;;
78610;SDS011;67932;50.474;4.436;2023-02-19T04:43:58;13.55;;;3.78;;
78610;SDS011;67932;50.474;4.436;2023-02-19T04:46:24;14.52;;;3.65;;
78610;SDS011;67932;50.474;4.436;2023-02-19T04:48:50;13.15;;;3.60;;
78610;SDS011;67932;50.474;4.436;2023-02-19T04:51:16;10.18;;;3.17;;
78610;SDS011;67932;50.474;4.436;2023-02-19T04:53:42;12.10;;;4.07;;
78610;SDS011;67932;50.474;4.436;2023-02-19T04:56:09;11.25;;;3.05;;
78610;SDS011;67932;50.474;4.436;2023-02-19T04:58:35;17.38;;;3.65;;
78610;SDS011;67932;50.474;4.436;2023-02-19T05:01:01;13.90;;;3.53;;
78610;SDS011;67932;50.474;4.436;2023-02-19T05:03:28;15.32;;;4.88;;
78610;SDS011;67932;50.474;4.436;2023-02-19T05:05:54;8.30;;;3.55;;
78610;SDS011;67932;50.474;4.436;2023-02-19T05:08:20;13.80;;;4.00;;
78610;SDS011;67932;50.474;4.436;2023-02-19T05:10:46;11.13;;;3.97;;
78610;SDS011;67932;50.474;4.436;2023-02-19T05:13:12;11.23;;;3.25;;
78610;SDS011;67932;50.474;4.436;2023-02-19T05:15:38;15.52;;;3.47;;
78610;SDS011;67932;50.474;4.436;2023-02-19T05:18:04;14.88;;;4.25;;
78610;SDS011;67932;50.474;4.436;2023-02-19T05:20:30;14.25;;;3.30;;
78610;SDS011;67932;50.474;4.436;2023-02-19T05:22:56;8.93;;;3.33;;
78610;SDS011;67932;50.474;4.436;2023-02-19T05:25:22;13.55;;;4.40;;
78610;SDS011;67932;50.474;4.436;2023-02-19T05:27:48;13.50;;;3.53;;
78610;SDS011;67932;50.474;4.436;2023-02-19T05:30:14;13.38;;;3.92;;
78610;SDS011;67932;50.474;4.436;2023-02-19T05:32:40;14.27;;;4.07;;
78610;SDS011;67932;50.474;4.436;2023-02-19T05:35:06;12.57;;;4.07;;
78610;SDS011;67932;50.474;4.436;2023-02-19T05:37:32;9.52;;;3.60;;
78610;SDS011;67932;50.474;4.436;2023-02-19T05:39:58;14.18;;;4.32;;
78610;SDS011;67932;50.474;4.436;2023-02-19T05:42:24;15.00;;;3.75;;
78610;SDS011;67932;50.474;4.436;2023-02-19T05:44:50;14.32;;;4.00;;
78610;SDS011;67932;50.474;4.436;2023-02-19T05:47:16;14.50;;;4.20;;
78610;SDS011;67932;50.474;4.436;2023-02-19T05:49:42;14.15;;;4.03;;
78610;SDS011;67932;50.474;4.436;2023-02-19T05:52:08;10.88;;;3.47;;
78610;SDS011;67932;50.474;4.436;2023-02-19T05:54:34;14.25;;;4.63;;
78610;SDS011;67932;50.474;4.436;2023-02-19T05:57:00;13.68;;;4.10;;
78610;SDS011;67932;50.474;4.436;2023-02-19T05:59:26;12.38;;;4.60;;
78610;SDS011;67932;50.474;4.436;2023-02-19T06:01:52;12.75;;;3.30;;
78610;SDS011;67932;50.474;4.436;2023-02-19T06:04:19;14.15;;;3.80;;
78610;SDS011;67932;50.474;4.436;2023-02-19T06:06:45;14.90;;;3.90;;
78610;SDS011;67932;50.474;4.436;2023-02-19T06:09:12;14.45;;;4.13;;
78610;SDS011;67932;50.474;4.436;2023-02-19T06:11:38;13.02;;;3.90;;
78610;SDS011;67932;50.474;4.436;2023-02-19T06:14:04;14.40;;;5.53;;
78610;SDS011;67932;50.474;4.436;2023-02-19T06:16:31;13.75;;;4.03;;
78610;SDS011;67932;50.474;4.436;2023-02-19T06:18:58;12.70;;;4.68;;
78610;SDS011;67932;50.474;4.436;2023-02-19T06:21:26;15.02;;;4.20;;
78610;SDS011;67932;50.474;4.436;2023-02-19T06:23:52;14.02;;;4.40;;
78610;SDS011;67932;50.474;4.436;2023-02-19T06:26:20;9.88;;;4.00;;
78610;SDS011;67932;50.474;4.436;2023-02-19T06:28:46;14.82;;;4.10;;
78610;SDS011;67932;50.474;4.436;2023-02-19T06:31:13;9.38;;;3.70;;
78610;SDS011;67932;50.474;4.436;2023-02-19T06:33:40;13.10;;;3.13;;
78610;SDS011;67932;50.474;4.436;2023-02-19T06:36:07;12.88;;;3.50;;
78610;SDS011;67932;50.474;4.436;2023-02-19T06:38:33;13.77;;;3.10;;
78610;SDS011;67932;50.474;4.436;2023-02-19T06:41:00;13.10;;;3.70;;
78610;SDS011;67932;50.474;4.436;2023-02-19T06:43:26;13.57;;;3.60;;
78610;SDS011;67932;50.474;4.436;2023-02-19T06:45:52;14.00;;;3.83;;
78610;SDS011;67932;50.474;4.436;2023-02-19T06:48:18;13.32;;;3.67;;
78610;SDS011;67932;50.474;4.436;2023-02-19T06:50:45;11.35;;;3.00;;
78610;SDS011;67932;50.474;4.436;2023-02-19T06:53:11;14.48;;;3.45;;
78610;SDS011;67932;50.474;4.436;2023-02-19T06:55:37;14.27;;;2.95;;
78610;SDS011;67932;50.474;4.436;2023-02-19T06:58:04;16.65;;;3.47;;
78610;SDS011;67932;50.474;4.436;2023-02-19T07:00:31;8.73;;;3.47;;
78610;SDS011;67932;50.474;4.436;2023-02-19T07:02:57;14.15;;;4.07;;
78610;SDS011;67932;50.474;4.436;2023-02-19T07:05:23;9.93;;;3.80;;
78610;SDS011;67932;50.474;4.436;2023-02-19T07:07:49;13.43;;;3.42;;
78610;SDS011;67932;50.474;4.436;2023-02-19T07:10:15;9.55;;;3.20;;
78610;SDS011;67932;50.474;4.436;2023-02-19T07:12:41;12.38;;;3.47;;
78610;SDS011;67932;50.474;4.436;2023-02-19T07:15:07;11.88;;;3.80;;
78610;SDS011;67932;50.474;4.436;2023-02-19T07:17:34;16.30;;;3.85;;
78610;SDS011;67932;50.474;4.436;2023-02-19T07:20:00;13.80;;;3.53;;
78610;SDS011;67932;50.474;4.436;2023-02-19T07:22:26;13.82;;;3.70;;
78610;SDS011;67932;50.474;4.436;2023-02-19T07:24:52;11.30;;;3.35;;
78610;SDS011;67932;50.474;4.436;2023-02-19T07:27:18;14.18;;;3.70;;
78610;SDS011;67932;50.474;4.436;2023-02-19T07:29:44;17.45;;;3.22;;
78610;SDS011;67932;50.474;4.436;2023-02-19T07:32:10;12.95;;;3.25;;
78610;SDS011;67932;50.474;4.436;2023-02-19T07:34:36;14.10;;;3.88;;
78610;SDS011;67932;50.474;4.436;2023-02-19T07:37:02;8.13;;;2.80;;
78610;SDS011;67932;50.474;4.436;2023-02-19T07:39:28;11.65;;;3.20;;
78610;SDS011;67932;50.474;4.436;2023-02-19T07:41:54;8.82;;;2.47;;
78610;SDS011;67932;50.474;4.436;2023-02-19T07:44:20;12.57;;;2.63;;
78610;SDS011;67932;50.474;4.436;2023-02-19T07:46:46;11.25;;;3.17;;
78610;SDS011;67932;50.474;4.436;2023-02-19T07:49:12;10.10;;;4.70;;
78610;SDS011;67932;50.474;4.436;2023-02-19T07:51:38;12.27;;;2.85;;
78610;SDS011;67932;50.474;4.436;2023-02-19T07:54:04;14.68;;;3.13;;
78610;SDS011;67932;50.474;4.436;2023-02-19T07:56:31;9.82;;;2.30;;
78610;SDS011;67932;50.474;4.436;2023-02-19T07:58:58;8.50;;;2.45;;
78610;SDS011;67932;50.474;4.436;2023-02-19T08:01:24;10.55;;;3.15;;
78610;SDS011;67932;50.474;4.436;2023-02-19T08:04:09;7.10;;;2.30;;
78610;SDS011;67932;50.474;4.436;2023-02-19T08:06:35;8.88;;;2.78;;
78610;SDS011;67932;50.474;4.436;2023-02-19T08:09:02;11.38;;;3.08;;
78610;SDS011;67932;50.474;4.436;2023-02-19T08:11:28;8.80;;;2.67;;
78610;SDS011;67932;50.474;4.436;2023-02-19T08:16:39;13.50;;;2.97;;
78610;SDS011;67932;50.474;4.436;2023-02-19T08:19:05;11.20;;;2.85;;
78610;SDS011;67932;50.474;4.436;2023-02-19T08:21:31;11.20;;;2.63;;
78610;SDS011;67932;50.474;4.436;2023-02-19T08:23:57;9.20;;;2.60;;
78610;SDS011;67932;50.474;4.436;2023-02-19T08:26:23;12.80;;;3.13;;
78610;SDS011;67932;50.474;4.436;2023-02-19T08:28:52;8.02;;;2.63;;
78610;SDS011;67932;50.474;4.436;2023-02-19T08:31:18;7.47;;;2.58;;
78610;SDS011;67932;50.474;4.436;2023-02-19T08:33:44;8.55;;;2.78;;
78610;SDS011;67932;50.474;4.436;2023-02-19T08:36:10;7.85;;;2.50;;
78610;SDS011;67932;50.474;4.436;2023-02-19T08:38:36;8.80;;;2.55;;
78610;SDS011;67932;50.474;4.436;2023-02-19T08:41:03;10.43;;;3.47;;
78610;SDS011;67932;50.474;4.436;2023-02-19T08:43:29;11.30;;;2.58;;
78610;SDS011;67932;50.474;4.436;2023-02-19T08:45:55;14.50;;;3.53;;
78610;SDS011;67932;50.474;4.436;2023-02-19T08:48:21;8.57;;;3.17;;
78610;SDS011;67932;50.474;4.436;2023-02-19T08:50:57;6.35;;;2.70;;
78610;SDS011;67932;50.474;4.436;2023-02-19T08:53:23;11.30;;;2.88;;
78610;SDS011;67932;50.474;4.436;2023-02-19T08:55:50;10.88;;;3.13;;
78610;SDS011;67932;50.474;4.436;2023-02-19T08:58:16;7.70;;;2.80;;
78610;SDS011;67932;50.474;4.436;2023-02-19T09:00:42;10.95;;;3.00;;
78610;SDS011;67932;50.474;4.436;2023-02-19T09:03:09;6.20;;;2.53;;
78610;SDS011;67932;50.474;4.436;2023-02-19T09:05:35;14.27;;;2.80;;
78610;SDS011;67932;50.474;4.436;2023-02-19T09:08:02;7.80;;;2.88;;
78610;SDS011;67932;50.474;4.436;2023-02-19T09:10:28;11.98;;;2.55;;
78610;SDS011;67932;50.474;4.436;2023-02-19T09:12:54;7.97;;;2.50;;
78610;SDS011;67932;50.474;4.436;2023-02-19T09:15:20;6.85;;;2.58;;
78610;SDS011;67932;50.474;4.436;2023-02-19T09:17:50;7.80;;;2.20;;
78610;SDS011;67932;50.474;4.436;2023-02-19T09:20:16;7.32;;;2.65;;
78610;SDS011;67932;50.474;4.436;2023-02-19T09:22:42;6.88;;;2.35;;
78610;SDS011;67932;50.474;4.436;2023-02-19T09:25:08;9.48;;;2.30;;
78610;SDS011;67932;50.474;4.436;2023-02-19T09:27:34;6.78;;;2.47;;
78610;SDS011;67932;50.474;4.436;2023-02-19T09:30:00;7.10;;;2.33;;
78610;SDS011;67932;50.474;4.436;2023-02-19T09:32:28;8.70;;;2.28;;
78610;SDS011;67932;50.474;4.436;2023-02-19T09:34:54;11.38;;;2.50;;
78610;SDS011;67932;50.474;4.436;2023-02-19T09:37:23;7.07;;;2.42;;
78610;SDS011;67932;50.474;4.436;2023-02-19T09:39:49;5.90;;;2.03;;
78610;SDS011;67932;50.474;4.436;2023-02-19T09:42:18;7.75;;;2.70;;
78610;SDS011;67932;50.474;4.436;2023-02-19T09:44:47;5.47;;;1.63;;
78610;SDS011;67932;50.474;4.436;2023-02-19T09:49:46;10.27;;;2.35;;
78610;SDS011;67932;50.474;4.436;2023-02-19T09:52:35;6.40;;;1.70;;
78610;SDS011;67932;50.474;4.436;2023-02-19T09:57:49;9.00;;;2.25;;
78610;SDS011;67932;50.474;4.436;2023-02-19T10:00:23;5.88;;;2.58;;
78610;SDS011;67932;50.474;4.436;2023-02-19T10:02:50;7.57;;;2.60;;
78610;SDS011;67932;50.474;4.436;2023-02-19T10:05:16;5.57;;;2.53;;
78610;SDS011;67932;50.474;4.436;2023-02-19T10:07:43;9.32;;;2.63;;
78610;SDS011;67932;50.474;4.436;2023-02-19T10:12:40;7.82;;;2.58;;
78610;SDS011;67932;50.474;4.436;2023-02-19T10:15:14;9.18;;;3.28;;
78610;SDS011;67932;50.474;4.436;2023-02-19T10:17:41;7.95;;;2.78;;
78610;SDS011;67932;50.474;4.436;2023-02-19T10:20:12;5.15;;;2.83;;
78610;SDS011;67932;50.474;4.436;2023-02-19T10:22:39;6.10;;;3.20;;
78610;SDS011;67932;50.474;4.436;2023-02-19T10:25:05;5.63;;;2.53;;
78610;SDS011;67932;50.474;4.436;2023-02-19T10:27:31;8.73;;;3.38;;
78610;SDS011;67932;50.474;4.436;2023-02-19T10:29:57;6.32;;;3.53;;
78610;SDS011;67932;50.474;4.436;2023-02-19T10:32:25;7.45;;;3.55;;
78610;SDS011;67932;50.474;4.436;2023-02-19T10:40:01;6.85;;;3.28;;
78610;SDS011;67932;50.474;4.436;2023-02-19T10:42:28;9.15;;;3.33;;
78610;SDS011;67932;50.474;4.436;2023-02-19T10:44:55;10.05;;;3.28;;
78610;SDS011;67932;50.474;4.436;2023-02-19T10:47:22;9.20;;;2.90;;
78610;SDS011;67932;50.474;4.436;2023-02-19T10:49:49;7.40;;;2.83;;
78610;SDS011;67932;50.474;4.436;2023-02-19T10:52:20;7.65;;;3.35;;
78610;SDS011;67932;50.474;4.436;2023-02-19T10:54:53;10.18;;;3.67;;
78610;SDS011;67932;50.474;4.436;2023-02-19T10:57:24;6.38;;;2.55;;
78610;SDS011;67932;50.474;4.436;2023-02-19T11:00:16;7.53;;;2.95;;
78610;SDS011;67932;50.474;4.436;2023-02-19T11:02:46;7.50;;;3.00;;
78610;SDS011;67932;50.474;4.436;2023-02-19T11:05:16;7.38;;;3.15;;
78610;SDS011;67932;50.474;4.436;2023-02-19T11:08:02;10.73;;;3.53;;
78610;SDS011;67932;50.474;4.436;2023-02-19T11:10:29;7.57;;;3.00;;
78610;SDS011;67932;50.474;4.436;2023-02-19T11:12:56;9.18;;;3.20;;
78610;SDS011;67932;50.474;4.436;2023-02-19T11:15:30;10.18;;;3.67;;
78610;SDS011;67932;50.474;4.436;2023-02-19T11:17:58;6.30;;;3.13;;
78610;SDS011;67932;50.474;4.436;2023-02-19T11:20:24;9.13;;;3.33;;
78610;SDS011;67932;50.474;4.436;2023-02-19T11:22:50;6.68;;;3.78;;
78610;SDS011;67932;50.474;4.436;2023-02-19T11:25:21;7.97;;;3.33;;
78610;SDS011;67932;50.474;4.436;2023-02-19T11:27:54;6.53;;;3.20;;
78610;SDS011;67932;50.474;4.436;2023-02-19T11:33:19;11.52;;;3.67;;
78610;SDS011;67932;50.474;4.436;2023-02-19T11:35:46;8.27;;;3.53;;
78610;SDS011;67932;50.474;4.436;2023-02-19T11:38:14;6.35;;;3.55;;
78610;SDS011;67932;50.474;4.436;2023-02-19T11:48:26;6.15;;;3.00;;
78610;SDS011;67932;50.474;4.436;2023-02-19T11:51:10;7.35;;;3.30;;
78610;SDS011;67932;50.474;4.436;2023-02-19T11:53:42;6.60;;;3.90;;
78610;SDS011;67932;50.474;4.436;2023-02-19T12:04:04;10.52;;;4.80;;
78610;SDS011;67932;50.474;4.436;2023-02-19T12:21:54;7.22;;;4.07;;
78610;SDS011;67932;50.474;4.436;2023-02-19T12:32:25;8.75;;;4.75;;
78610;SDS011;67932;50.474;4.436;2023-02-19T12:45:44;8.27;;;4.53;;
78610;SDS011;67932;50.474;4.436;2023-02-19T12:48:12;11.10;;;5.07;;
78610;SDS011;67932;50.474;4.436;2023-02-19T12:50:41;7.68;;;4.68;;
78610;SDS011;67932;50.474;4.436;2023-02-19T12:53:31;11.10;;;4.72;;
78610;SDS011;67932;50.474;4.436;2023-02-19T12:55:56;8.38;;;5.13;;
78610;SDS011;67932;50.474;4.436;2023-02-19T12:58:26;9.95;;;5.15;;
78610;SDS011;67932;50.474;4.436;2023-02-19T13:00:53;9.68;;;5.22;;
78610;SDS011;67932;50.474;4.436;2023-02-19T13:03:45;9.07;;;4.53;;
78610;SDS011;67932;50.474;4.436;2023-02-19T13:11:28;9.10;;;4.78;;
78610;SDS011;67932;50.474;4.436;2023-02-19T13:13:56;10.57;;;5.45;;
78610;SDS011;67932;50.474;4.436;2023-02-19T13:16:23;9.13;;;4.57;;
78610;SDS011;67932;50.474;4.436;2023-02-19T13:18:54;8.35;;;4.10;;
78610;SDS011;67932;50.474;4.436;2023-02-19T13:21:21;7.20;;;4.55;;
78610;SDS011;67932;50.474;4.436;2023-02-19T13:24:13;6.93;;;4.30;;
78610;SDS011;67932;50.474;4.436;2023-02-19T13:37:08;8.00;;;4.18;;
78610;SDS011;67932;50.474;4.436;2023-02-19T13:39:35;5.72;;;4.10;;
78610;SDS011;67932;50.474;4.436;2023-02-19T13:42:10;7.10;;;3.72;;
78610;SDS011;67932;50.474;4.436;2023-02-19T13:44:46;5.97;;;3.58;;
78610;SDS011;67932;50.474;4.436;2023-02-19T13:50:04;8.05;;;4.32;;
78610;SDS011;67932;50.474;4.436;2023-02-19T13:52:37;7.47;;;4.00;;
78610;SDS011;67932;50.474;4.436;2023-02-19T13:57:50;7.40;;;4.30;;
78610;SDS011;67932;50.474;4.436;2023-02-19T14:01:01;8.95;;;5.15;;
78610;SDS011;67932;50.474;4.436;2023-02-19T14:06:00;7.82;;;4.65;;
78610;SDS011;67932;50.474;4.436;2023-02-19T14:08:48;10.55;;;4.97;;
78610;SDS011;67932;50.474;4.436;2023-02-19T14:11:14;8.40;;;4.72;;
78610;SDS011;67932;50.474;4.436;2023-02-19T14:16:29;9.15;;;4.55;;
78610;SDS011;67932;50.474;4.436;2023-02-19T14:18:59;8.45;;;5.07;;
78610;SDS011;67932;50.474;4.436;2023-02-19T14:21:33;10.07;;;4.45;;
78610;SDS011;67932;50.474;4.436;2023-02-19T14:23:59;9.35;;;5.18;;
78610;SDS011;67932;50.474;4.436;2023-02-19T14:26:26;10.75;;;4.57;;
78610;SDS011;67932;50.474;4.436;2023-02-19T14:28:54;8.40;;;4.72;;
78610;SDS011;67932;50.474;4.436;2023-02-19T14:31:23;6.28;;;3.95;;
78610;SDS011;67932;50.474;4.436;2023-02-19T14:33:53;6.82;;;4.40;;
78610;SDS011;67932;50.474;4.436;2023-02-19T14:39:26;6.55;;;2.75;;
78610;SDS011;67932;50.474;4.436;2023-02-19T14:42:00;6.88;;;3.05;;
78610;SDS011;67932;50.474;4.436;2023-02-19T14:44:31;3.70;;;2.55;;
78610;SDS011;67932;50.474;4.436;2023-02-19T14:47:03;5.85;;;2.90;;
78610;SDS011;67932;50.474;4.436;2023-02-19T14:51:57;5.80;;;3.00;;
78610;SDS011;67932;50.474;4.436;2023-02-19T14:54:38;5.45;;;3.03;;
78610;SDS011;67932;50.474;4.436;2023-02-19T14:57:09;4.80;;;2.63;;
78610;SDS011;67932;50.474;4.436;2023-02-19T14:59:36;5.18;;;3.00;;
78610;SDS011;67932;50.474;4.436;2023-02-19T15:02:12;5.53;;;3.13;;
78610;SDS011;67932;50.474;4.436;2023-02-19T15:04:39;6.20;;;2.60;;
78610;SDS011;67932;50.474;4.436;2023-02-19T15:07:06;5.05;;;2.97;;
78610;SDS011;67932;50.474;4.436;2023-02-19T15:09:37;5.30;;;2.88;;
78610;SDS011;67932;50.474;4.436;2023-02-19T15:12:04;7.90;;;2.80;;
78610;SDS011;67932;50.474;4.436;2023-02-19T15:14:31;6.30;;;3.10;;
78610;SDS011;67932;50.474;4.436;2023-02-19T15:16:59;8.80;;;3.28;;
78610;SDS011;67932;50.474;4.436;2023-02-19T15:19:25;5.20;;;2.78;;
78610;SDS011;67932;50.474;4.436;2023-02-19T15:21:52;6.50;;;2.53;;
78610;SDS011;67932;50.474;4.436;2023-02-19T15:24:19;4.28;;;2.72;;
78610;SDS011;67932;50.474;4.436;2023-02-19T15:26:47;5.65;;;3.00;;
78610;SDS011;67932;50.474;4.436;2023-02-19T15:29:15;6.80;;;3.17;;
78610;SDS011;67932;50.474;4.436;2023-02-19T15:31:49;7.88;;;3.15;;
78610;SDS011;67932;50.474;4.436;2023-02-19T15:34:29;6.20;;;3.17;;
78610;SDS011;67932;50.474;4.436;2023-02-19T15:36:56;8.25;;;3.33;;
78610;SDS011;67932;50.474;4.436;2023-02-19T15:39:23;6.72;;;3.50;;
78610;SDS011;67932;50.474;4.436;2023-02-19T15:41:51;6.13;;;3.25;;
78610;SDS011;67932;50.474;4.436;2023-02-19T15:44:36;6.93;;;3.10;;
78610;SDS011;67932;50.474;4.436;2023-02-19T15:47:06;7.97;;;4.00;;
78610;SDS011;67932;50.474;4.436;2023-02-19T15:49:40;7.25;;;3.17;;
78610;SDS011;67932;50.474;4.436;2023-02-19T15:52:11;7.03;;;3.75;;
78610;SDS011;67932;50.474;4.436;2023-02-19T15:54:47;5.25;;;3.30;;
78610;SDS011;67932;50.474;4.436;2023-02-19T15:57:20;7.82;;;3.40;;
78610;SDS011;67932;50.474;4.436;2023-02-19T15:59:49;9.15;;;3.92;;
78610;SDS011;67932;50.474;4.436;2023-02-19T16:02:17;8.32;;;4.10;;
78610;SDS011;67932;50.474;4.436;2023-02-19T16:04:43;9.43;;;4.55;;
78610;SDS011;67932;50.474;4.436;2023-02-19T16:07:19;4.35;;;3.20;;
78610;SDS011;67932;50.474;4.436;2023-02-19T16:09:46;9.23;;;4.00;;
78610;SDS011;67932;50.474;4.436;2023-02-19T16:12:19;6.13;;;4.10;;
78610;SDS011;67932;50.474;4.436;2023-02-19T16:14:45;7.60;;;3.60;;
78610;SDS011;67932;50.474;4.436;2023-02-19T16:17:14;6.97;;;3.45;;
78610;SDS011;67932;50.474;4.436;2023-02-19T16:22:09;7.80;;;4.05;;
78610;SDS011;67932;50.474;4.436;2023-02-19T16:24:39;6.18;;;3.60;;
78610;SDS011;67932;50.474;4.436;2023-02-19T16:27:06;7.57;;;3.90;;
78610;SDS011;67932;50.474;4.436;2023-02-19T16:29:32;8.88;;;3.80;;
78610;SDS011;67932;50.474;4.436;2023-02-19T16:31:59;7.35;;;4.10;;
78610;SDS011;67932;50.474;4.436;2023-02-19T16:34:32;6.80;;;3.92;;
78610;SDS011;67932;50.474;4.436;2023-02-19T16:36:59;5.68;;;3.75;;
78610;SDS011;67932;50.474;4.436;2023-02-19T16:39:26;8.27;;;5.07;;
78610;SDS011;67932;50.474;4.436;2023-02-19T16:46:56;9.35;;;4.78;;
78610;SDS011;67932;50.474;4.436;2023-02-19T16:49:22;8.77;;;5.13;;
78610;SDS011;67932;50.474;4.436;2023-02-19T16:51:49;7.32;;;3.80;;